Southlake's Hourly Summary for Tuesday, July 10, 2018
Hour Temp
(f)
RH
(%)
Solar Rad.
(MJ/m2)
Rainfall
(in)
Wind
(mph)
7/10/2018 12:00 AM 79 80 0 0 2.31
7/10/2018 1:00 AM 78 82 0 0 2.63
7/10/2018 2:00 AM 77 83 0 0 3.02
7/10/2018 3:00 AM 76 85 0 0 2.69
7/10/2018 4:00 AM 75 88 0 0 1.51
7/10/2018 5:00 AM 75 88 0 0 2.07
7/10/2018 6:00 AM 75 88 0.01 0 2.46
7/10/2018 7:00 AM 76 86 0.24 0 1.56
7/10/2018 8:00 AM 79 79 0.85 0 3.52
7/10/2018 9:00 AM 82 71 1.59 0 4.03
7/10/2018 10:00 AM 85 63 2.37 0 4.7
7/10/2018 11:00 AM 89 54 2.96 0 4.36
7/10/2018 12:00 PM 89 53 1.59 0 3.8
7/10/2018 1:00 PM 89 50 1.39 0 3.58
7/10/2018 2:00 PM 87 55 1.96 0 5.82
7/10/2018 3:00 PM 79 78 0.17 0 5.03
7/10/2018 4:00 PM 77 82 0.09 0 2.8
7/10/2018 5:00 PM 78 89 0.24 0.02 2.18
7/10/2018 6:00 PM 80 85 0.51 0 2.46
7/10/2018 7:00 PM 81 80 0.32 0 1.74
7/10/2018 8:00 PM 81 83 0.07 0 1.51
7/10/2018 9:00 PM 79 92 0 0 1.68
7/10/2018 10:00 PM 76 99 0 0 1.56
7/10/2018 11:00 PM 76 94 0 0 1.29
Data Summary 79 78 14.36 0.02 2.85